createdAt,value
2023-03-26T00:00:08.333Z,99.99
2023-03-26T00:01:08.352Z,99.99
2023-03-26T00:02:08.701Z,99.99
2023-03-26T00:03:08.367Z,99.99
2023-03-26T00:04:08.321Z,99.99
2023-03-26T00:05:08.309Z,99.99
2023-03-26T00:06:08.613Z,99.99
2023-03-26T00:07:08.263Z,99.99
2023-03-26T00:08:08.269Z,99.99
2023-03-26T00:09:08.272Z,99.99
2023-03-26T00:10:08.242Z,99.99
2023-03-26T00:11:08.219Z,99.99
2023-03-26T00:12:08.398Z,99.99
2023-03-26T00:13:08.235Z,99.99
2023-03-26T00:14:08.360Z,99.99
2023-03-26T00:15:08.165Z,99.99
2023-03-26T00:16:08.217Z,99.99
2023-03-26T00:17:08.143Z,99.99
2023-03-26T00:18:08.212Z,99.99
2023-03-26T00:19:08.114Z,99.99
2023-03-26T00:20:08.119Z,99.99
2023-03-26T00:21:08.107Z,99.99
2023-03-26T00:22:08.084Z,99.99
2023-03-26T00:23:08.093Z,99.99
2023-03-26T00:24:08.095Z,99.99
2023-03-26T00:25:08.184Z,99.99
2023-03-26T00:26:08.062Z,99.99
2023-03-26T00:27:08.167Z,99.99
2023-03-26T00:28:08.192Z,99.99
2023-03-26T00:29:08.129Z,99.99
2023-03-26T00:30:08.054Z,99.99
2023-03-26T00:31:08.055Z,99.99
2023-03-26T00:32:08.127Z,99.99
2023-03-26T00:33:08.013Z,99.99
2023-03-26T00:34:08.018Z,99.99
2023-03-26T00:35:07.954Z,99.99
2023-03-26T00:36:07.965Z,99.99
2023-03-26T00:37:07.914Z,99.99
2023-03-26T00:38:07.961Z,99.99
2023-03-26T00:39:07.927Z,99.99
2023-03-26T00:40:07.906Z,99.99
2023-03-26T00:41:07.881Z,99.99
2023-03-26T00:42:07.886Z,99.99
2023-03-26T00:43:07.873Z,99.99
2023-03-26T00:44:07.865Z,99.99
2023-03-26T00:45:07.859Z,99.99
2023-03-26T00:46:07.863Z,99.99
2023-03-26T00:47:07.845Z,99.99
2023-03-26T00:48:07.859Z,99.99
2023-03-26T00:49:07.815Z,99.99
2023-03-26T00:50:07.781Z,99.99
2023-03-26T00:51:07.762Z,99.99
2023-03-26T00:52:07.754Z,99.99
2023-03-26T00:53:07.763Z,99.99
2023-03-26T00:54:07.770Z,99.99
2023-03-26T00:55:07.734Z,99.99
2023-03-26T00:56:07.702Z,99.99
2023-03-26T00:57:07.704Z,99.99
2023-03-26T00:58:07.696Z,99.99
2023-03-26T00:59:07.699Z,99.99
2023-03-26T01:00:07.686Z,99.99
2023-03-26T01:01:07.696Z,99.99
2023-03-26T01:02:07.649Z,99.99
2023-03-26T01:03:07.732Z,99.99
2023-03-26T01:04:09.035Z,99.99
2023-03-26T01:05:07.705Z,99.99
2023-03-26T01:06:07.614Z,99.99
2023-03-26T01:07:07.599Z,99.99
2023-03-26T01:08:07.572Z,99.99
2023-03-26T01:09:07.618Z,99.99
2023-03-26T01:10:07.578Z,99.99
2023-03-26T01:11:07.590Z,99.99
2023-03-26T01:12:07.561Z,99.99
2023-03-26T01:13:07.527Z,99.99
2023-03-26T01:14:07.538Z,99.99
2023-03-26T01:15:07.507Z,99.99
2023-03-26T01:16:07.567Z,99.99
2023-03-26T01:17:07.496Z,99.99
2023-03-26T01:18:07.480Z,99.99
2023-03-26T01:19:07.472Z,99.99
2023-03-26T01:20:07.432Z,99.99
2023-03-26T01:21:07.450Z,99.99
2023-03-26T01:22:07.441Z,99.99
2023-03-26T01:23:07.437Z,99.99
2023-03-26T01:24:07.430Z,99.99
2023-03-26T01:25:07.411Z,99.99
2023-03-26T01:26:07.388Z,99.99
2023-03-26T01:27:07.376Z,99.99
2023-03-26T01:28:07.350Z,99.99
2023-03-26T01:29:07.371Z,99.99
2023-03-26T01:30:07.351Z,99.99
2023-03-26T01:31:07.328Z,99.99
2023-03-26T01:32:07.312Z,99.99
2023-03-26T01:33:07.427Z,99.99
2023-03-26T01:34:07.315Z,99.99
2023-03-26T01:35:07.271Z,99.99
2023-03-26T01:36:07.346Z,99.99
2023-03-26T01:37:07.253Z,99.99
2023-03-26T01:38:07.259Z,99.99
2023-03-26T01:39:07.249Z,99.99
2023-03-26T01:40:07.333Z,99.99
2023-03-26T01:41:07.204Z,99.99
2023-03-26T01:42:07.289Z,99.99
2023-03-26T01:43:07.207Z,99.99
2023-03-26T01:44:07.210Z,99.99
2023-03-26T01:45:07.185Z,99.99
2023-03-26T01:46:07.185Z,99.99
2023-03-26T01:47:07.172Z,99.99
2023-03-26T01:48:07.166Z,99.99
2023-03-26T01:49:07.138Z,99.99
2023-03-26T01:50:07.118Z,99.99
2023-03-26T01:51:07.094Z,99.99
2023-03-26T01:52:07.099Z,99.99
2023-03-26T01:53:07.075Z,99.99
2023-03-26T01:54:07.129Z,99.99
2023-03-26T01:55:07.055Z,99.99
2023-03-26T01:56:07.035Z,99.99
2023-03-26T01:57:07.109Z,99.99
2023-03-26T01:58:07.021Z,99.99
2023-03-26T01:59:07.032Z,99.99
2023-03-26T02:00:06.993Z,99.99
2023-03-26T02:01:07.002Z,99.99
2023-03-26T02:02:07.076Z,99.99
2023-03-26T02:03:07.066Z,99.99
2023-03-26T02:04:06.983Z,99.99
2023-03-26T02:05:06.950Z,99.99
2023-03-26T02:06:06.921Z,99.99
2023-03-26T02:07:06.919Z,99.99
2023-03-26T02:08:06.915Z,99.99
2023-03-26T02:09:06.907Z,99.99
2023-03-26T02:10:06.894Z,99.91
2023-03-26T02:11:06.890Z,99.99
2023-03-26T02:12:06.863Z,99.99
2023-03-26T02:13:06.836Z,99.99
2023-03-26T02:14:06.865Z,99.99
2023-03-26T02:15:06.818Z,99.99
2023-03-26T02:16:06.885Z,99.99
2023-03-26T02:17:06.806Z,99.99
2023-03-26T02:18:06.827Z,99.91
2023-03-26T02:19:06.802Z,99.81
2023-03-26T02:20:06.777Z,99.91
2023-03-26T02:21:06.852Z,99.91
2023-03-26T02:22:06.782Z,99.99
2023-03-26T02:23:06.733Z,99.99
2023-03-26T02:24:06.745Z,99.99
2023-03-26T02:25:06.728Z,99.99
2023-03-26T02:26:06.725Z,99.99
2023-03-26T02:27:06.697Z,99.99
2023-03-26T02:28:06.701Z,99.99
2023-03-26T02:29:06.690Z,99.99
2023-03-26T02:30:06.675Z,99.99
2023-03-26T02:31:06.641Z,99.91
2023-03-26T02:32:06.633Z,99.76
2023-03-26T02:33:06.638Z,99.76
2023-03-26T02:34:06.664Z,99.65
2023-03-26T02:35:06.807Z,99.76
2023-03-26T02:36:06.628Z,99.86
2023-03-26T02:37:06.579Z,99.76
2023-03-26T02:38:06.568Z,99.86
2023-03-26T02:39:06.594Z,99.86
2023-03-26T02:40:06.554Z,99.76
2023-03-26T02:41:06.538Z,99.76
2023-03-26T02:42:06.517Z,99.76
2023-03-26T02:43:06.530Z,99.76
2023-03-26T02:44:06.516Z,99.76
2023-03-26T02:45:06.489Z,99.86
2023-03-26T02:46:06.519Z,99.86
2023-03-26T02:47:06.471Z,99.86
2023-03-26T02:48:06.453Z,99.96
2023-03-26T02:49:06.452Z,99.99
2023-03-26T02:50:06.486Z,99.99
2023-03-26T02:51:06.489Z,99.99
2023-03-26T02:52:06.729Z,99.99
2023-03-26T02:53:06.397Z,99.99
2023-03-26T02:54:06.407Z,99.99
2023-03-26T02:55:06.394Z,99.99
2023-03-26T02:56:06.377Z,99.99
2023-03-26T02:57:06.399Z,99.99
2023-03-26T02:58:06.343Z,99.99
2023-03-26T02:59:06.370Z,99.99
2023-03-26T03:00:06.327Z,99.99
2023-03-26T03:01:06.349Z,99.99
2023-03-26T03:02:06.405Z,99.99
2023-03-26T03:03:06.340Z,99.99
2023-03-26T03:04:06.295Z,99.99
2023-03-26T03:05:06.277Z,99.99
2023-03-26T03:06:06.267Z,99.99
2023-03-26T03:07:06.249Z,99.99
2023-03-26T03:08:06.252Z,99.99
2023-03-26T03:09:06.231Z,99.99
2023-03-26T03:10:06.217Z,99.96
2023-03-26T03:11:06.192Z,99.86
2023-03-26T03:12:06.206Z,99.60
2023-03-26T03:13:06.185Z,99.70
2023-03-26T03:14:06.187Z,99.80
2023-03-26T03:15:06.149Z,99.90
2023-03-26T03:16:06.155Z,99.96
2023-03-26T03:17:06.181Z,99.99
2023-03-26T03:18:06.145Z,99.99
2023-03-26T03:19:06.153Z,99.99
2023-03-26T03:20:06.092Z,99.99
2023-03-26T03:21:06.083Z,99.99
2023-03-26T03:22:06.090Z,99.99
2023-03-26T03:23:06.068Z,99.99
2023-03-26T03:24:06.081Z,99.99
2023-03-26T03:25:06.037Z,99.99
2023-03-26T03:26:06.056Z,99.99
2023-03-26T03:27:06.022Z,99.99
2023-03-26T03:28:06.027Z,99.99
2023-03-26T03:29:06.044Z,99.99
2023-03-26T03:30:06.010Z,99.99
2023-03-26T03:31:06.017Z,99.99
2023-03-26T03:32:05.967Z,99.99
2023-03-26T03:33:06.101Z,99.99
2023-03-26T03:34:05.940Z,99.99
2023-03-26T03:35:05.967Z,99.99
2023-03-26T03:36:05.958Z,99.99
2023-03-26T03:37:05.968Z,99.99
2023-03-26T03:38:05.897Z,99.99
2023-03-26T03:39:05.881Z,99.99
2023-03-26T03:40:05.894Z,99.99
2023-03-26T03:41:05.870Z,99.99
2023-03-26T03:42:05.851Z,99.99
2023-03-26T03:43:05.841Z,99.90
2023-03-26T03:44:05.854Z,99.99
2023-03-26T03:45:05.866Z,99.99
2023-03-26T03:46:05.855Z,99.99
2023-03-26T03:47:05.815Z,99.99
2023-03-26T03:48:12.348Z,99.99
2023-03-26T03:49:05.769Z,99.99
2023-03-26T03:50:05.785Z,99.99
2023-03-26T03:51:05.752Z,99.99
2023-03-26T03:52:05.749Z,99.99
2023-03-26T03:53:05.794Z,99.99
2023-03-26T03:54:05.741Z,99.99
2023-03-26T03:55:05.732Z,99.90
2023-03-26T03:56:05.713Z,99.70
2023-03-26T03:57:05.734Z,99.60
2023-03-26T03:58:05.683Z,99.29
2023-03-26T03:59:05.699Z,99.29
2023-03-26T04:00:06.989Z,99.39
2023-03-26T04:01:05.653Z,99.39
2023-03-26T04:02:05.631Z,99.23
2023-03-26T04:03:05.676Z,99.08
2023-03-26T04:04:05.748Z,99.02
2023-03-26T04:05:05.613Z,99.13
2023-03-26T04:06:05.591Z,99.18
2023-03-26T04:07:05.594Z,99.18
2023-03-26T04:08:05.584Z,99.08
2023-03-26T04:09:05.582Z,99.08
2023-03-26T04:10:05.584Z,99.08
2023-03-26T04:11:05.545Z,99.08
2023-03-26T04:12:05.547Z,98.97
2023-03-26T04:13:05.511Z,98.97
2023-03-26T04:14:05.511Z,98.92
2023-03-26T04:15:05.517Z,99.02
2023-03-26T04:16:05.513Z,99.02
2023-03-26T04:17:05.471Z,98.82
2023-03-26T04:18:05.470Z,98.61
2023-03-26T04:19:05.458Z,98.71
2023-03-26T04:20:05.472Z,98.71
2023-03-26T04:21:05.432Z,98.30
2023-03-26T04:22:05.416Z,97.99
2023-03-26T04:23:05.419Z,97.99
2023-03-26T04:24:05.408Z,97.99
2023-03-26T04:25:05.455Z,98.10
2023-03-26T04:26:05.373Z,98.30
2023-03-26T04:27:05.349Z,98.30
2023-03-26T04:28:05.367Z,98.10
2023-03-26T04:29:05.338Z,97.99
2023-03-26T04:30:05.351Z,97.99
2023-03-26T04:31:05.440Z,97.89
2023-03-26T04:32:05.305Z,97.78
2023-03-26T04:33:05.348Z,97.63
2023-03-26T04:34:05.287Z,97.52
2023-03-26T04:35:05.303Z,97.63
2023-03-26T04:36:05.306Z,97.73
2023-03-26T04:37:05.248Z,97.11
2023-03-26T04:38:05.240Z,97.11
2023-03-26T04:39:05.339Z,97.11
2023-03-26T04:40:05.240Z,97.11
2023-03-26T04:41:05.265Z,97.01
2023-03-26T04:42:05.224Z,97.11
2023-03-26T04:43:05.245Z,97.31
2023-03-26T04:44:05.180Z,97.42
2023-03-26T04:45:05.184Z,97.63
2023-03-26T04:46:05.168Z,97.73
2023-03-26T04:47:05.145Z,97.88
2023-03-26T04:48:05.188Z,98.08
2023-03-26T04:49:05.135Z,98.19
2023-03-26T04:50:05.155Z,98.29
2023-03-26T04:51:05.107Z,98.39
2023-03-26T04:52:05.074Z,98.39
2023-03-26T04:53:05.061Z,98.60
2023-03-26T04:54:05.083Z,98.70
2023-03-26T04:55:05.138Z,98.70
2023-03-26T04:56:05.033Z,98.75
2023-03-26T04:57:05.097Z,98.96
2023-03-26T04:58:05.020Z,99.16
2023-03-26T04:59:05.008Z,99.16
2023-03-26T05:00:05.014Z,99.26
2023-03-26T05:01:10.312Z,99.26
2023-03-26T05:02:05.016Z,99.26
2023-03-26T05:03:05.101Z,99.37
2023-03-26T05:04:05.054Z,99.43
2023-03-26T05:05:05.005Z,99.47
2023-03-26T05:06:05.019Z,99.43
2023-03-26T05:07:04.931Z,99.22
2023-03-26T05:08:04.948Z,99.01
2023-03-26T05:09:04.928Z,99.01
2023-03-26T05:10:04.925Z,98.91
2023-03-26T05:11:04.888Z,98.60
2023-03-26T05:12:04.903Z,97.77
2023-03-26T05:13:04.862Z,97.47
2023-03-26T05:14:04.845Z,97.47
2023-03-26T05:15:04.849Z,97.36
2023-03-26T05:16:04.848Z,97.36
2023-03-26T05:17:04.817Z,96.95
2023-03-26T05:18:04.858Z,96.64
2023-03-26T05:19:04.775Z,96.84
2023-03-26T05:20:04.802Z,96.84
2023-03-26T05:21:04.755Z,96.95
2023-03-26T05:22:04.750Z,96.95
2023-03-26T05:23:04.735Z,96.84
2023-03-26T05:24:04.734Z,96.84
2023-03-26T05:25:04.737Z,96.74
2023-03-26T05:26:04.699Z,96.74
2023-03-26T05:27:04.696Z,96.84
2023-03-26T05:28:04.670Z,96.95
2023-03-26T05:29:04.670Z,97.05
2023-03-26T05:30:04.683Z,97.16
2023-03-26T05:31:04.638Z,97.26
2023-03-26T05:32:04.630Z,97.41
2023-03-26T05:33:04.807Z,97.51
2023-03-26T05:34:04.620Z,97.72
2023-03-26T05:35:04.625Z,97.92
2023-03-26T05:36:04.603Z,98.02
2023-03-26T05:37:04.592Z,98.19
2023-03-26T05:38:04.568Z,98.13
2023-03-26T05:39:04.555Z,98.23
2023-03-26T05:40:04.579Z,98.33
2023-03-26T05:41:04.534Z,98.44
2023-03-26T05:42:04.528Z,98.54
2023-03-26T05:43:04.526Z,98.65
2023-03-26T05:44:04.504Z,98.75
2023-03-26T05:45:04.577Z,98.85
2023-03-26T05:46:04.512Z,98.85
2023-03-26T05:47:04.476Z,98.96
2023-03-26T05:48:04.486Z,98.96
2023-03-26T05:49:04.449Z,99.16
2023-03-26T05:50:04.470Z,99.26
2023-03-26T05:51:04.425Z,99.37
2023-03-26T05:52:04.420Z,99.16
2023-03-26T05:53:04.413Z,98.96
2023-03-26T05:54:04.389Z,98.96
2023-03-26T05:55:04.445Z,98.96
2023-03-26T05:56:04.380Z,98.85
2023-03-26T05:57:04.413Z,98.70
2023-03-26T05:58:04.343Z,98.80
2023-03-26T05:59:04.339Z,98.80
2023-03-26T06:00:04.382Z,98.80
2023-03-26T06:01:04.305Z,98.80
2023-03-26T06:02:04.304Z,98.91
2023-03-26T06:03:04.484Z,98.91
2023-03-26T06:04:04.356Z,98.91
2023-03-26T06:05:04.295Z,98.60
2023-03-26T06:06:04.261Z,98.29
2023-03-26T06:07:04.266Z,98.08
2023-03-26T06:08:04.255Z,98.03
2023-03-26T06:09:04.244Z,98.03
2023-03-26T06:10:04.232Z,98.03
2023-03-26T06:11:04.207Z,98.03
2023-03-26T06:12:04.217Z,97.94
2023-03-26T06:13:04.188Z,97.42
2023-03-26T06:14:04.165Z,97.42
2023-03-26T06:15:04.175Z,97.31
2023-03-26T06:16:04.187Z,97.31
2023-03-26T06:17:04.133Z,97.31
2023-03-26T06:18:04.206Z,97.31
2023-03-26T06:19:04.175Z,97.42
2023-03-26T06:20:04.129Z,97.38
2023-03-26T06:21:04.126Z,97.38
2023-03-26T06:22:04.096Z,97.27
2023-03-26T06:23:04.071Z,97.27
2023-03-26T06:24:04.064Z,96.75
2023-03-26T06:25:04.090Z,96.55
2023-03-26T06:26:04.036Z,96.45
2023-03-26T06:27:04.020Z,96.34
2023-03-26T06:28:04.032Z,96.03
2023-03-26T06:29:04.016Z,95.83
2023-03-26T06:30:04.022Z,95.83
2023-03-26T06:31:04.031Z,95.93
2023-03-26T06:32:16.310Z,96.14
2023-03-26T06:33:04.018Z,96.34
2023-03-26T06:34:03.976Z,96.24
2023-03-26T06:35:03.955Z,96.03
2023-03-26T06:36:03.989Z,95.83
2023-03-26T06:37:03.914Z,95.73
2023-03-26T06:38:03.908Z,95.21
2023-03-26T06:39:07.845Z,95.21
2023-03-26T06:40:03.899Z,95.62
2023-03-26T06:41:03.879Z,95.83
2023-03-26T06:42:03.869Z,96.03
2023-03-26T06:43:08.753Z,96.20
2023-03-26T06:44:03.862Z,96.09
2023-03-26T06:45:03.854Z,95.89
2023-03-26T06:46:03.998Z,95.58
2023-03-26T06:47:03.802Z,95.58
2023-03-26T06:48:03.855Z,95.58
2023-03-26T06:49:03.787Z,94.45
2023-03-26T06:50:03.793Z,94.45
2023-03-26T06:51:03.787Z,94.34
2023-03-26T06:52:03.749Z,94.34
2023-03-26T06:53:03.769Z,94.13
2023-03-26T06:54:03.811Z,93.35
2023-03-26T06:55:03.791Z,93.56
2023-03-26T06:56:03.716Z,93.66
2023-03-26T06:57:03.742Z,93.87
2023-03-26T06:58:03.684Z,94.03
2023-03-26T06:59:03.732Z,94.24
2023-03-26T07:00:03.702Z,94.34
2023-03-26T07:01:03.710Z,94.45
2023-03-26T07:02:03.689Z,94.45
2023-03-26T07:03:03.704Z,94.13
2023-03-26T07:04:03.729Z,94.03
2023-03-26T07:05:03.621Z,93.31
2023-03-26T07:06:03.627Z,93.31
2023-03-26T07:07:03.592Z,93.31
2023-03-26T07:08:03.592Z,93.21
2023-03-26T07:09:03.565Z,93.11
2023-03-26T07:10:03.598Z,93.41
2023-03-26T07:11:03.610Z,93.01
2023-03-26T07:12:03.552Z,92.76
2023-03-26T07:13:03.540Z,93.06
2023-03-26T07:14:03.515Z,93.68
2023-03-26T07:15:03.529Z,93.88
2023-03-26T07:16:03.549Z,93.58
2023-03-26T07:17:03.514Z,93.37
2023-03-26T07:18:03.543Z,93.48
2023-03-26T07:19:03.469Z,93.06
2023-03-26T07:20:03.475Z,93.37
2023-03-26T07:21:03.455Z,93.37
2023-03-26T07:22:03.458Z,93.27
2023-03-26T07:23:03.445Z,93.54
2023-03-26T07:24:03.613Z,92.76
2023-03-26T07:25:03.405Z,92.50
2023-03-26T07:26:03.420Z,92.61
2023-03-26T07:27:03.415Z,92.30
2023-03-26T07:28:03.431Z,92.14
2023-03-26T07:29:04.209Z,91.99
2023-03-26T07:30:03.422Z,92.10
2023-03-26T07:31:03.378Z,91.78
2023-03-26T07:32:03.409Z,91.11
2023-03-26T07:33:03.328Z,89.77
2023-03-26T07:34:03.326Z,90.18
2023-03-26T07:35:03.280Z,89.87
2023-03-26T07:36:03.328Z,87.40
2023-03-26T07:37:03.247Z,88.53
2023-03-26T07:38:03.239Z,89.46
2023-03-26T07:39:03.250Z,89.15
2023-03-26T07:40:03.222Z,89.77
2023-03-26T07:41:03.228Z,89.67
2023-03-26T07:42:03.201Z,88.64
2023-03-26T07:43:03.372Z,88.23
2023-03-26T07:44:03.192Z,87.30
2023-03-26T07:45:03.182Z,87.51
2023-03-26T07:46:03.251Z,86.99
2023-03-26T07:47:03.148Z,87.71
2023-03-26T07:48:03.151Z,87.71
2023-03-26T07:49:03.121Z,88.43
2023-03-26T07:50:03.141Z,88.12
2023-03-26T07:51:03.175Z,88.49
2023-03-26T07:52:03.141Z,87.57
2023-03-26T07:53:03.072Z,87.87
2023-03-26T07:54:03.073Z,88.29
2023-03-26T07:55:03.068Z,88.18
2023-03-26T07:56:03.126Z,87.36
2023-03-26T07:57:04.340Z,87.87
2023-03-26T07:58:03.052Z,88.08
2023-03-26T07:59:03.006Z,87.77
2023-03-26T08:00:03.006Z,87.84
2023-03-26T08:01:03.000Z,87.32
2023-03-26T08:02:02.997Z,86.80
2023-03-26T08:03:03.096Z,85.30
2023-03-26T08:04:23.250Z,84.58
2023-03-26T08:05:03.057Z,84.48
2023-03-26T08:06:02.947Z,84.69
2023-03-26T08:07:02.938Z,83.14
2023-03-26T08:08:02.952Z,84.38
2023-03-26T08:09:02.927Z,83.14
2023-03-26T08:10:02.926Z,82.83
2023-03-26T08:11:02.901Z,83.14
2023-03-26T08:12:02.891Z,83.25
2023-03-26T08:13:02.870Z,83.04
2023-03-26T08:14:02.838Z,83.25
2023-03-26T08:15:02.847Z,82.42
2023-03-26T08:16:02.877Z,81.19
2023-03-26T08:17:02.799Z,82.93
2023-03-26T08:18:02.819Z,83.14
2023-03-26T08:19:02.780Z,82.28
2023-03-26T08:20:02.811Z,81.39
2023-03-26T08:21:02.837Z,82.42
2023-03-26T08:22:02.822Z,82.21
2023-03-26T08:23:02.738Z,82.83
2023-03-26T08:24:02.746Z,82.21
2023-03-26T08:25:02.732Z,82.32
2023-03-26T08:26:02.745Z,82.32
2023-03-26T08:27:02.717Z,82.63
2023-03-26T08:28:02.711Z,82.48
2023-03-26T08:29:02.703Z,79.91
2023-03-26T08:30:02.707Z,81.15
2023-03-26T08:31:02.732Z,82.07
2023-03-26T08:32:02.655Z,82.14
2023-03-26T08:33:02.684Z,79.77
2023-03-26T08:34:02.664Z,80.29
2023-03-26T08:35:02.610Z,80.80
2023-03-26T08:36:02.653Z,81.32
2023-03-26T08:37:02.573Z,80.19
2023-03-26T08:38:02.607Z,79.30
2023-03-26T08:39:02.575Z,78.89
2023-03-26T08:40:02.567Z,79.40
2023-03-26T08:41:02.598Z,80.22
2023-03-26T08:42:02.578Z,81.15
2023-03-26T08:43:02.517Z,81.25
2023-03-26T08:44:02.529Z,81.62
2023-03-26T08:45:02.497Z,80.80
2023-03-26T08:46:02.547Z,81.73
2023-03-26T08:47:02.507Z,80.39
2023-03-26T08:48:02.508Z,78.75
2023-03-26T08:49:02.477Z,79.16
2023-03-26T08:50:02.451Z,79.36
2023-03-26T08:51:02.467Z,79.77
2023-03-26T08:52:02.438Z,79.88
2023-03-26T08:53:02.464Z,79.88
2023-03-26T08:54:02.423Z,81.32
2023-03-26T08:55:02.422Z,80.60
2023-03-26T08:56:02.402Z,80.19
2023-03-26T08:57:02.412Z,77.82
2023-03-26T08:58:02.881Z,78.64
2023-03-26T08:59:02.385Z,78.54
2023-03-26T09:00:03.076Z,79.36
2023-03-26T09:01:02.341Z,78.44
2023-03-26T09:02:02.384Z,79.47
2023-03-26T09:03:02.332Z,78.33
2023-03-26T09:04:02.339Z,78.44
2023-03-26T09:05:02.282Z,78.96
2023-03-26T09:06:02.291Z,78.33
2023-03-26T09:07:02.236Z,77.92
2023-03-26T09:08:02.238Z,76.79
2023-03-26T09:09:02.225Z,76.69
2023-03-26T09:10:02.212Z,77.51
2023-03-26T09:11:02.237Z,77.92
2023-03-26T09:12:02.188Z,77.99
2023-03-26T09:13:02.176Z,77.78
2023-03-26T09:14:02.182Z,79.22
2023-03-26T09:15:02.161Z,78.88
2023-03-26T09:16:02.235Z,78.16
2023-03-26T09:17:02.125Z,75.59
2023-03-26T09:18:02.178Z,77.13
2023-03-26T09:19:02.109Z,78.16
2023-03-26T09:20:04.862Z,78.67
2023-03-26T09:21:02.104Z,78.98
2023-03-26T09:22:02.080Z,77.85
2023-03-26T09:23:02.086Z,75.38
2023-03-26T09:24:02.075Z,78.57
2023-03-26T09:25:02.074Z,79.19
2023-03-26T09:26:02.058Z,79.49
2023-03-26T09:27:02.021Z,77.85
2023-03-26T09:28:02.023Z,77.03
2023-03-26T09:29:02.048Z,77.65
2023-03-26T09:30:02.005Z,76.82
2023-03-26T09:31:02.037Z,77.03
2023-03-26T09:32:01.994Z,77.65
2023-03-26T09:33:02.007Z,75.59
2023-03-26T09:34:01.961Z,73.23
2023-03-26T09:35:01.955Z,75.38
2023-03-26T09:36:02.019Z,76.21
2023-03-26T09:37:01.960Z,76.82
2023-03-26T09:38:01.965Z,76.62
2023-03-26T09:39:01.917Z,77.34
2023-03-26T09:40:01.894Z,75.49
2023-03-26T09:41:01.903Z,76.07
2023-03-26T09:42:01.880Z,76.48
2023-03-26T09:43:01.881Z,73.91
2023-03-26T09:44:01.849Z,75.56
2023-03-26T09:45:01.850Z,76.58
2023-03-26T09:46:01.879Z,74.02
2023-03-26T09:47:01.816Z,73.81
2023-03-26T09:48:08.362Z,73.81
2023-03-26T09:49:01.783Z,74.43
2023-03-26T09:50:02.741Z,75.56
2023-03-26T09:51:01.777Z,75.45
2023-03-26T09:52:01.783Z,75.93
2023-03-26T09:53:01.779Z,73.78
2023-03-26T09:54:01.793Z,75.93
2023-03-26T09:55:01.730Z,78.05
2023-03-26T09:56:01.803Z,77.13
2023-03-26T09:57:01.759Z,75.79
2023-03-26T09:58:01.769Z,75.45
2023-03-26T09:59:01.674Z,75.24
2023-03-26T10:00:01.680Z,73.50
2023-03-26T10:01:01.987Z,70.84
2023-03-26T10:02:01.685Z,72.82
2023-03-26T10:03:01.669Z,75.49
2023-03-26T10:04:01.655Z,74.77
2023-03-26T10:05:02.120Z,75.28
2023-03-26T10:06:01.870Z,75.90
2023-03-26T10:07:01.592Z,77.33
2023-03-26T10:08:01.616Z,76.72
2023-03-26T10:09:01.594Z,75.90
2023-03-26T10:10:01.573Z,75.04
2023-03-26T10:11:01.549Z,75.73
2023-03-26T10:12:01.556Z,76.14
2023-03-26T10:13:11.944Z,75.31
2023-03-26T10:14:01.586Z,74.39
2023-03-26T10:15:01.506Z,73.16
2023-03-26T10:16:01.518Z,72.14
2023-03-26T10:17:01.532Z,73.57
2023-03-26T10:18:01.534Z,73.57
2023-03-26T10:19:01.524Z,74.19
2023-03-26T10:20:01.494Z,72.96
2023-03-26T10:21:01.463Z,74.29
2023-03-26T10:22:01.442Z,75.52
2023-03-26T10:23:01.422Z,74.90
2023-03-26T10:24:01.487Z,74.43
2023-03-26T10:25:01.406Z,74.94
2023-03-26T10:26:01.379Z,75.35
2023-03-26T10:27:08.705Z,74.66
2023-03-26T10:28:01.353Z,73.13
2023-03-26T10:29:01.344Z,74.66
2023-03-26T10:30:01.346Z,74.36
2023-03-26T10:31:01.369Z,76.51
2023-03-26T10:32:01.302Z,75.90
2023-03-26T10:33:01.364Z,75.90
2023-03-26T10:34:01.318Z,76.41
2023-03-26T10:35:01.287Z,76.82
2023-03-26T10:36:01.388Z,74.66
2023-03-26T10:37:01.407Z,73.33
2023-03-26T10:38:01.562Z,72.34
2023-03-26T10:39:01.236Z,71.21
2023-03-26T10:40:01.214Z,72.00
2023-03-26T10:41:01.228Z,69.84
2023-03-26T10:42:01.191Z,69.13
2023-03-26T10:43:01.173Z,69.95
2023-03-26T10:44:07.832Z,72.48
2023-03-26T10:45:01.279Z,70.32
2023-03-26T10:46:01.635Z,71.42
2023-03-26T10:47:01.345Z,69.17
2023-03-26T10:48:01.427Z,69.27
2023-03-26T10:49:01.391Z,68.93
2023-03-26T10:50:01.099Z,71.15
2023-03-26T10:51:01.104Z,70.84
2023-03-26T10:52:01.099Z,71.01
2023-03-26T10:53:01.075Z,70.88
2023-03-26T10:54:01.317Z,70.64
2023-03-26T10:55:01.281Z,70.54
2023-03-26T10:56:01.040Z,67.57
2023-03-26T10:57:01.316Z,67.68
2023-03-26T10:58:01.360Z,66.69
2023-03-26T10:59:01.051Z,68.52
2023-03-26T11:00:01.061Z,69.14
2023-03-26T11:01:02.199Z,68.55
2023-03-26T11:02:01.053Z,68.46
2023-03-26T11:03:00.984Z,70.94
2023-03-26T11:04:00.941Z,69.41
2023-03-26T11:05:00.925Z,71.15
2023-03-26T11:06:01.065Z,71.18
2023-03-26T11:07:00.916Z,69.17
2023-03-26T11:08:00.904Z,72.14
2023-03-26T11:09:00.908Z,71.56
2023-03-26T11:10:00.894Z,73.68
2023-03-26T11:11:00.874Z,71.52
2023-03-26T11:12:00.869Z,71.22
2023-03-26T11:13:00.862Z,71.01
2023-03-26T11:14:00.847Z,72.65
2023-03-26T11:15:00.853Z,72.41
2023-03-26T11:16:01.174Z,72.92
2023-03-26T11:17:00.797Z,71.90
2023-03-26T11:18:00.841Z,69.85
2023-03-26T11:19:00.770Z,70.03
2023-03-26T11:20:00.778Z,71.36
2023-03-26T11:21:18.873Z,71.42
2023-03-26T11:22:00.738Z,70.50
2023-03-26T11:23:00.741Z,65.28
2023-03-26T11:24:05.347Z,64.57
2023-03-26T11:25:00.737Z,67.13
2023-03-26T11:26:00.744Z,68.97
2023-03-26T11:27:16.031Z,68.63
2023-03-26T11:28:00.679Z,69.75
2023-03-26T11:29:03.764Z,70.37
2023-03-26T11:30:00.773Z,70.57
2023-03-26T11:31:00.691Z,67.74
2023-03-26T11:32:00.641Z,68.46
2023-03-26T11:33:00.671Z,70.43
2023-03-26T11:34:00.691Z,71.36
2023-03-26T11:35:00.600Z,71.08
2023-03-26T11:36:00.603Z,69.65
2023-03-26T11:37:00.591Z,69.54
2023-03-26T11:38:00.570Z,69.98
2023-03-26T11:39:00.554Z,69.24
2023-03-26T11:40:00.572Z,66.37
2023-03-26T11:41:00.567Z,67.70
2023-03-26T11:42:00.520Z,68.21
2023-03-26T11:43:00.525Z,68.73
2023-03-26T11:44:00.510Z,69.10
2023-03-26T11:45:00.494Z,69.51
2023-03-26T11:46:00.509Z,69.48
2023-03-26T11:47:00.797Z,69.58
2023-03-26T11:48:00.492Z,68.25
2023-03-26T11:49:00.440Z,68.01
2023-03-26T11:50:00.427Z,69.55
2023-03-26T11:51:00.432Z,67.98
2023-03-26T11:52:00.410Z,67.68
2023-03-26T11:53:00.432Z,69.89
2023-03-26T11:54:00.397Z,70.00
2023-03-26T11:55:00.422Z,69.28
2023-03-26T11:56:00.363Z,68.77
2023-03-26T11:57:06.489Z,70.13
2023-03-26T11:58:00.372Z,69.31
2023-03-26T11:59:00.327Z,68.80
2023-03-26T12:00:00.307Z,70.13
2023-03-26T12:01:00.302Z,70.95
2023-03-26T12:02:00.394Z,70.13
2023-03-26T12:03:00.325Z,69.21
2023-03-26T12:04:00.301Z,69.31
2023-03-26T12:05:00.313Z,65.36
2023-03-26T12:06:00.244Z,65.66
2023-03-26T12:07:00.246Z,68.01
2023-03-26T12:08:00.281Z,69.42
2023-03-26T12:09:00.210Z,68.29
2023-03-26T12:10:17.841Z,68.57
2023-03-26T12:11:00.195Z,68.43
2023-03-26T12:12:00.190Z,68.53
2023-03-26T12:13:00.188Z,69.04
2023-03-26T12:14:00.153Z,69.04
2023-03-26T12:15:00.153Z,68.12
2023-03-26T12:16:00.190Z,65.09
2023-03-26T12:17:00.232Z,67.47
2023-03-26T12:18:00.200Z,69.31
2023-03-26T12:19:00.137Z,69.14
2023-03-26T12:20:00.137Z,69.34
2023-03-26T12:21:00.086Z,69.58
2023-03-26T12:22:00.110Z,70.71
2023-03-26T12:23:00.108Z,71.94
2023-03-26T12:24:00.058Z,70.71
2023-03-26T12:25:00.032Z,71.42
2023-03-26T12:26:00.034Z,72.04
2023-03-26T12:27:00.015Z,71.53
2023-03-26T12:28:00.030Z,71.94
2023-03-26T12:28:59.985Z,71.94
2023-03-26T12:30:00.018Z,70.50
2023-03-26T12:31:13.921Z,71.83
2023-03-26T12:32:00.004Z,69.17
2023-03-26T12:33:00.051Z,68.55
2023-03-26T12:33:59.935Z,69.68
2023-03-26T12:34:59.919Z,69.79
2023-03-26T12:36:00.033Z,70.26
2023-03-26T12:36:59.902Z,69.01
2023-03-26T12:37:59.945Z,69.01
2023-03-26T12:39:16.968Z,68.57
2023-03-26T12:40:17.124Z,68.87
2023-03-26T12:40:59.858Z,68.43
2023-03-26T12:43:40.262Z,66.52
2023-03-26T12:44:59.581Z,68.46
2023-03-26T12:45:05.169Z,68.49
2023-03-26T12:48:00.659Z,69.72
2023-03-26T12:48:08.047Z,70.95
2023-03-26T12:48:13.558Z,71.29
2023-03-26T12:49:13.596Z,69.75
2023-03-26T12:50:13.474Z,69.75
2023-03-26T12:51:13.459Z,70.78
2023-03-26T12:52:13.449Z,69.75
2023-03-26T12:53:13.408Z,69.34